sensor_id;sensor_type;location;lat;lon;timestamp;P1;durP1;ratioP1;P2;durP2;ratioP2
57301;SDS011;43149;50.974;18.224;2023-12-28T00:06:15;4.70;;;4.30;;
57301;SDS011;43149;50.974;18.224;2023-12-28T00:20:50;39.30;;;16.80;;
57301;SDS011;43149;50.974;18.224;2023-12-28T00:30:33;15.90;;;6.60;;
57301;SDS011;43149;50.974;18.224;2023-12-28T00:40:16;18.70;;;11.20;;
57301;SDS011;43149;50.974;18.224;2023-12-28T00:50:00;34.00;;;14.00;;
57301;SDS011;43149;50.974;18.224;2023-12-28T00:59:43;26.60;;;10.30;;
57301;SDS011;43149;50.974;18.224;2023-12-28T01:09:27;7.90;;;5.80;;
57301;SDS011;43149;50.974;18.224;2023-12-28T01:19:11;14.50;;;7.40;;
57301;SDS011;43149;50.974;18.224;2023-12-28T01:28:55;10.50;;;7.50;;
57301;SDS011;43149;50.974;18.224;2023-12-28T01:38:42;19.50;;;6.90;;
57301;SDS011;43149;50.974;18.224;2023-12-28T01:48:25;8.20;;;6.30;;
57301;SDS011;43149;50.974;18.224;2023-12-28T01:58:08;33.70;;;9.60;;
57301;SDS011;43149;50.974;18.224;2023-12-28T02:07:55;9.60;;;7.20;;
57301;SDS011;43149;50.974;18.224;2023-12-28T02:17:53;10.30;;;6.50;;
57301;SDS011;43149;50.974;18.224;2023-12-28T02:27:40;10.50;;;5.60;;
57301;SDS011;43149;50.974;18.224;2023-12-28T02:37:46;9.10;;;5.40;;
57301;SDS011;43149;50.974;18.224;2023-12-28T02:47:31;9.10;;;3.80;;
57301;SDS011;43149;50.974;18.224;2023-12-28T02:57:16;8.20;;;4.00;;
57301;SDS011;43149;50.974;18.224;2023-12-28T03:07:04;25.40;;;8.50;;
57301;SDS011;43149;50.974;18.224;2023-12-28T03:16:50;7.60;;;2.20;;
57301;SDS011;43149;50.974;18.224;2023-12-28T03:19:16;18.40;;;9.50;;
57301;SDS011;43149;50.974;18.224;2023-12-28T03:29:07;8.00;;;4.70;;
57301;SDS011;43149;50.974;18.224;2023-12-28T03:38:50;29.70;;;5.10;;
57301;SDS011;43149;50.974;18.224;2023-12-28T03:48:37;7.40;;;4.20;;
57301;SDS011;43149;50.974;18.224;2023-12-28T03:58:23;9.40;;;5.50;;
57301;SDS011;43149;50.974;18.224;2023-12-28T04:08:08;9.00;;;4.60;;
57301;SDS011;43149;50.974;18.224;2023-12-28T04:17:51;6.70;;;3.70;;
57301;SDS011;43149;50.974;18.224;2023-12-28T04:27:37;10.10;;;5.60;;
57301;SDS011;43149;50.974;18.224;2023-12-28T04:37:24;11.10;;;5.30;;
57301;SDS011;43149;50.974;18.224;2023-12-28T04:47:09;13.90;;;5.70;;
57301;SDS011;43149;50.974;18.224;2023-12-28T04:56:52;12.10;;;4.10;;
57301;SDS011;43149;50.974;18.224;2023-12-28T05:06:36;42.90;;;5.40;;
57301;SDS011;43149;50.974;18.224;2023-12-28T05:16:19;5.80;;;3.80;;
57301;SDS011;43149;50.974;18.224;2023-12-28T05:26:04;7.60;;;4.40;;
57301;SDS011;43149;50.974;18.224;2023-12-28T05:35:48;10.10;;;5.30;;
57301;SDS011;43149;50.974;18.224;2023-12-28T05:45:31;5.30;;;4.80;;
57301;SDS011;43149;50.974;18.224;2023-12-28T05:55:14;13.30;;;6.10;;
57301;SDS011;43149;50.974;18.224;2023-12-28T06:05:01;13.00;;;3.50;;
57301;SDS011;43149;50.974;18.224;2023-12-28T06:14:46;9.50;;;6.50;;
57301;SDS011;43149;50.974;18.224;2023-12-28T06:24:32;20.10;;;9.70;;
57301;SDS011;43149;50.974;18.224;2023-12-28T06:34:17;22.20;;;5.50;;
57301;SDS011;43149;50.974;18.224;2023-12-28T06:44:00;6.80;;;5.60;;
57301;SDS011;43149;50.974;18.224;2023-12-28T06:53:44;10.30;;;6.00;;
57301;SDS011;43149;50.974;18.224;2023-12-28T07:03:31;12.30;;;6.00;;
57301;SDS011;43149;50.974;18.224;2023-12-28T07:13:15;18.80;;;3.90;;
57301;SDS011;43149;50.974;18.224;2023-12-28T07:18:07;22.00;;;11.10;;
57301;SDS011;43149;50.974;18.224;2023-12-28T07:27:50;20.10;;;6.60;;
57301;SDS011;43149;50.974;18.224;2023-12-28T07:37:35;11.60;;;4.70;;
57301;SDS011;43149;50.974;18.224;2023-12-28T07:47:20;20.60;;;7.20;;
57301;SDS011;43149;50.974;18.224;2023-12-28T07:57:04;10.70;;;6.90;;
57301;SDS011;43149;50.974;18.224;2023-12-28T08:06:47;14.00;;;8.00;;
57301;SDS011;43149;50.974;18.224;2023-12-28T08:23:48;8.50;;;6.90;;
57301;SDS011;43149;50.974;18.224;2023-12-28T08:33:32;15.90;;;5.60;;
57301;SDS011;43149;50.974;18.224;2023-12-28T08:43:16;16.30;;;8.30;;
57301;SDS011;43149;50.974;18.224;2023-12-28T08:53:00;17.80;;;9.40;;
57301;SDS011;43149;50.974;18.224;2023-12-28T09:02:44;13.60;;;6.60;;
57301;SDS011;43149;50.974;18.224;2023-12-28T09:12:35;6.70;;;4.80;;
57301;SDS011;43149;50.974;18.224;2023-12-28T09:22:20;12.20;;;4.90;;
57301;SDS011;43149;50.974;18.224;2023-12-28T09:32:03;5.70;;;2.70;;
57301;SDS011;43149;50.974;18.224;2023-12-28T09:41:51;7.80;;;3.90;;
57301;SDS011;43149;50.974;18.224;2023-12-28T09:51:39;7.30;;;3.50;;
57301;SDS011;43149;50.974;18.224;2023-12-28T10:01:24;23.50;;;7.80;;
57301;SDS011;43149;50.974;18.224;2023-12-28T10:11:17;16.50;;;6.50;;
57301;SDS011;43149;50.974;18.224;2023-12-28T10:21:05;14.40;;;6.80;;
57301;SDS011;43149;50.974;18.224;2023-12-28T10:30:53;15.00;;;6.80;;
57301;SDS011;43149;50.974;18.224;2023-12-28T10:40:37;10.60;;;6.30;;
57301;SDS011;43149;50.974;18.224;2023-12-28T10:50:28;9.30;;;5.20;;
57301;SDS011;43149;50.974;18.224;2023-12-28T11:08:10;23.20;;;7.10;;
57301;SDS011;43149;50.974;18.224;2023-12-28T11:17:56;4.10;;;3.70;;
57301;SDS011;43149;50.974;18.224;2023-12-28T11:27:41;4.60;;;4.20;;
57301;SDS011;43149;50.974;18.224;2023-12-28T11:37:40;10.20;;;6.00;;
57301;SDS011;43149;50.974;18.224;2023-12-28T11:47:43;10.10;;;7.00;;
57301;SDS011;43149;50.974;18.224;2023-12-28T11:57:27;13.00;;;7.30;;
57301;SDS011;43149;50.974;18.224;2023-12-28T12:07:17;16.80;;;9.20;;
57301;SDS011;43149;50.974;18.224;2023-12-28T12:17:04;17.70;;;7.10;;
57301;SDS011;43149;50.974;18.224;2023-12-28T12:26:51;16.50;;;7.10;;
57301;SDS011;43149;50.974;18.224;2023-12-28T12:36:41;18.50;;;9.60;;
57301;SDS011;43149;50.974;18.224;2023-12-28T12:43:59;43.50;;;20.10;;
57301;SDS011;43149;50.974;18.224;2023-12-28T12:53:59;28.00;;;10.10;;
57301;SDS011;43149;50.974;18.224;2023-12-28T13:03:49;26.20;;;9.10;;
57301;SDS011;43149;50.974;18.224;2023-12-28T13:13:34;27.80;;;9.80;;
57301;SDS011;43149;50.974;18.224;2023-12-28T13:23:26;10.20;;;7.10;;
57301;SDS011;43149;50.974;18.224;2023-12-28T13:40:29;19.90;;;8.90;;
57301;SDS011;43149;50.974;18.224;2023-12-28T13:50:15;19.60;;;8.70;;
57301;SDS011;43149;50.974;18.224;2023-12-28T13:55:07;27.80;;;14.00;;
57301;SDS011;43149;50.974;18.224;2023-12-28T14:04:52;12.20;;;8.20;;
57301;SDS011;43149;50.974;18.224;2023-12-28T14:14:41;13.30;;;6.30;;
57301;SDS011;43149;50.974;18.224;2023-12-28T14:24:26;4.70;;;4.20;;
57301;SDS011;43149;50.974;18.224;2023-12-28T14:34:18;18.90;;;8.20;;
57301;SDS011;43149;50.974;18.224;2023-12-28T14:44:11;21.00;;;6.50;;
57301;SDS011;43149;50.974;18.224;2023-12-28T14:51:29;41.90;;;15.20;;
57301;SDS011;43149;50.974;18.224;2023-12-28T15:01:13;13.10;;;7.30;;
57301;SDS011;43149;50.974;18.224;2023-12-28T15:10:59;6.60;;;3.90;;
57301;SDS011;43149;50.974;18.224;2023-12-28T15:20:47;16.10;;;9.10;;
57301;SDS011;43149;50.974;18.224;2023-12-28T15:30:31;21.00;;;10.00;;
57301;SDS011;43149;50.974;18.224;2023-12-28T15:40:16;16.10;;;8.50;;
57301;SDS011;43149;50.974;18.224;2023-12-28T15:49:59;21.20;;;10.50;;
57301;SDS011;43149;50.974;18.224;2023-12-28T15:59:44;63.60;;;21.50;;
57301;SDS011;43149;50.974;18.224;2023-12-28T16:09:28;50.70;;;20.00;;
57301;SDS011;43149;50.974;18.224;2023-12-28T16:19:13;34.20;;;13.10;;
57301;SDS011;43149;50.974;18.224;2023-12-28T16:28:57;72.10;;;28.10;;
57301;SDS011;43149;50.974;18.224;2023-12-28T16:38:42;66.10;;;13.00;;
57301;SDS011;43149;50.974;18.224;2023-12-28T16:48:32;41.80;;;16.10;;
57301;SDS011;43149;50.974;18.224;2023-12-28T16:58:19;75.00;;;30.70;;
57301;SDS011;43149;50.974;18.224;2023-12-28T17:08:04;30.80;;;13.00;;
57301;SDS011;43149;50.974;18.224;2023-12-28T17:17:52;34.00;;;14.40;;
57301;SDS011;43149;50.974;18.224;2023-12-28T17:27:56;28.90;;;16.90;;
57301;SDS011;43149;50.974;18.224;2023-12-28T17:37:46;12.10;;;7.00;;
57301;SDS011;43149;50.974;18.224;2023-12-28T17:47:36;47.80;;;16.10;;
57301;SDS011;43149;50.974;18.224;2023-12-28T17:57:36;24.10;;;12.00;;
57301;SDS011;43149;50.974;18.224;2023-12-28T18:07:24;31.70;;;14.10;;
57301;SDS011;43149;50.974;18.224;2023-12-28T18:17:09;35.10;;;15.80;;
57301;SDS011;43149;50.974;18.224;2023-12-28T18:27:22;33.00;;;15.30;;
57301;SDS011;43149;50.974;18.224;2023-12-28T18:37:11;22.70;;;12.90;;
57301;SDS011;43149;50.974;18.224;2023-12-28T18:47:00;41.40;;;15.30;;
57301;SDS011;43149;50.974;18.224;2023-12-28T18:56:47;50.00;;;18.80;;
57301;SDS011;43149;50.974;18.224;2023-12-28T19:06:34;60.30;;;20.40;;
57301;SDS011;43149;50.974;18.224;2023-12-28T19:16:24;41.90;;;15.70;;
57301;SDS011;43149;50.974;18.224;2023-12-28T19:26:13;57.10;;;19.10;;
57301;SDS011;43149;50.974;18.224;2023-12-28T19:36:02;37.30;;;18.80;;
57301;SDS011;43149;50.974;18.224;2023-12-28T19:45:50;46.00;;;18.30;;
57301;SDS011;43149;50.974;18.224;2023-12-28T19:55:42;33.60;;;15.90;;
57301;SDS011;43149;50.974;18.224;2023-12-28T20:05:30;29.20;;;14.60;;
57301;SDS011;43149;50.974;18.224;2023-12-28T20:15:16;66.50;;;27.30;;
57301;SDS011;43149;50.974;18.224;2023-12-28T20:25:03;46.10;;;21.40;;
57301;SDS011;43149;50.974;18.224;2023-12-28T20:34:48;50.50;;;21.80;;
57301;SDS011;43149;50.974;18.224;2023-12-28T20:44:33;26.80;;;15.30;;
57301;SDS011;43149;50.974;18.224;2023-12-28T20:54:18;43.50;;;16.90;;
57301;SDS011;43149;50.974;18.224;2023-12-28T21:04:03;25.20;;;9.60;;
57301;SDS011;43149;50.974;18.224;2023-12-28T21:13:52;53.10;;;17.90;;
57301;SDS011;43149;50.974;18.224;2023-12-28T21:23:46;45.80;;;14.50;;
57301;SDS011;43149;50.974;18.224;2023-12-28T21:33:32;39.70;;;17.00;;
57301;SDS011;43149;50.974;18.224;2023-12-28T21:43:16;57.00;;;21.50;;
57301;SDS011;43149;50.974;18.224;2023-12-28T21:53:04;43.30;;;19.30;;
57301;SDS011;43149;50.974;18.224;2023-12-28T22:02:47;49.30;;;15.20;;
57301;SDS011;43149;50.974;18.224;2023-12-28T22:12:32;44.90;;;18.80;;
57301;SDS011;43149;50.974;18.224;2023-12-28T22:22:16;22.40;;;10.50;;
57301;SDS011;43149;50.974;18.224;2023-12-28T22:31:59;51.00;;;23.30;;
57301;SDS011;43149;50.974;18.224;2023-12-28T22:41:43;28.30;;;12.80;;
57301;SDS011;43149;50.974;18.224;2023-12-28T22:51:27;33.30;;;13.30;;
57301;SDS011;43149;50.974;18.224;2023-12-28T23:01:11;40.10;;;19.90;;
57301;SDS011;43149;50.974;18.224;2023-12-28T23:10:55;30.50;;;12.20;;
57301;SDS011;43149;50.974;18.224;2023-12-28T23:20:41;17.90;;;9.90;;
57301;SDS011;43149;50.974;18.224;2023-12-28T23:30:25;16.60;;;9.10;;
57301;SDS011;43149;50.974;18.224;2023-12-28T23:40:09;18.10;;;10.20;;
57301;SDS011;43149;50.974;18.224;2023-12-28T23:49:55;20.90;;;12.70;;
57301;SDS011;43149;50.974;18.224;2023-12-28T23:59:38;21.10;;;11.30;;
